createdAt,value
2018-05-29T00:01:09.381Z,100052.16
2018-05-29T00:03:35.685Z,100046.16
2018-05-29T00:06:02.711Z,100045.33
2018-05-29T00:08:29.017Z,100049.79
2018-05-29T00:10:55.792Z,100046.00
2018-05-29T00:13:22.874Z,100039.21
2018-05-29T00:15:49.203Z,100035.52
2018-05-29T00:18:15.470Z,100044.44
2018-05-29T00:20:41.770Z,100039.44
2018-05-29T00:23:08.091Z,100039.69
2018-05-29T00:25:34.385Z,100038.16
2018-05-29T00:28:00.681Z,100039.32
2018-05-29T00:30:26.978Z,100030.77
2018-05-29T00:32:53.325Z,100035.23
2018-05-29T00:35:19.651Z,100026.84
2018-05-29T00:37:45.970Z,100027.54
2018-05-29T00:40:12.273Z,100026.64
2018-05-29T00:42:38.510Z,100024.72
2018-05-29T00:45:05.530Z,100020.13
2018-05-29T00:47:31.808Z,100013.97
2018-05-29T00:49:58.079Z,100014.73
2018-05-29T00:52:24.421Z,100008.06
2018-05-29T00:55:09.542Z,100008.70
2018-05-29T00:57:35.853Z,100007.25
2018-05-29T01:00:02.935Z,100008.41
2018-05-29T01:02:29.229Z,100008.41
2018-05-29T01:04:56.232Z,100012.67
2018-05-29T01:07:22.539Z,100009.83
2018-05-29T01:09:48.943Z,100008.62
2018-05-29T01:12:15.980Z,100009.67
2018-05-29T01:14:42.343Z,100009.80
2018-05-29T01:17:08.882Z,100010.27
2018-05-29T01:19:35.178Z,100012.23
2018-05-29T01:22:02.256Z,100015.05
2018-05-29T01:24:28.555Z,100007.61
2018-05-29T01:26:54.827Z,100013.98
2018-05-29T01:29:21.119Z,100015.14
2018-05-29T01:31:47.412Z,100014.77
2018-05-29T01:34:13.698Z,100010.75
2018-05-29T01:36:40.760Z,100011.06
2018-05-29T01:39:07.057Z,100005.25
2018-05-29T01:41:33.343Z,100005.95
2018-05-29T01:43:59.652Z,100005.20
2018-05-29T01:46:25.939Z,100008.12
2018-05-29T01:48:52.992Z,100007.78
2018-05-29T01:51:19.322Z,100003.55
2018-05-29T01:53:45.598Z,99997.34
2018-05-29T01:56:11.907Z,99993.47
2018-05-29T01:58:38.933Z,99988.80
2018-05-29T02:01:05.219Z,99981.27
2018-05-29T02:03:31.511Z,99975.86
2018-05-29T02:05:58.575Z,99967.09
2018-05-29T02:08:24.879Z,99968.09
2018-05-29T02:10:51.943Z,99963.84
2018-05-29T02:13:18.250Z,99967.83
2018-05-29T02:15:44.523Z,99971.11
2018-05-29T02:18:10.860Z,99961.52
2018-05-29T02:20:37.147Z,99969.56
2018-05-29T02:23:04.139Z,99961.37
2018-05-29T02:25:30.437Z,99958.55
2018-05-29T02:27:57.518Z,99954.50
2018-05-29T02:30:23.898Z,99954.45
2018-05-29T02:32:50.224Z,99952.70
2018-05-29T02:35:16.552Z,99945.63
2018-05-29T02:37:43.615Z,99949.77
2018-05-29T02:40:09.892Z,99940.98
2018-05-29T02:42:36.225Z,99943.97
2018-05-29T02:45:02.551Z,99938.77
2018-05-29T02:47:28.820Z,99942.78
2018-05-29T02:49:55.123Z,99942.73
2018-05-29T02:52:21.401Z,99943.31
2018-05-29T02:54:47.717Z,99946.30
2018-05-29T02:57:14.046Z,99940.66
2018-05-29T02:59:40.406Z,99943.86
2018-05-29T03:02:07.425Z,99935.55
2018-05-29T03:04:33.684Z,99940.70
2018-05-29T03:07:00.834Z,99940.21
2018-05-29T03:09:27.854Z,99941.45
2018-05-29T03:11:54.149Z,99941.95
2018-05-29T03:14:20.503Z,99945.03
2018-05-29T03:16:46.805Z,99944.09
2018-05-29T03:19:13.069Z,99950.38
2018-05-29T03:21:39.309Z,99944.92
2018-05-29T03:24:06.646Z,99947.80
2018-05-29T03:26:33.013Z,99948.63
2018-05-29T03:28:59.265Z,99948.37
2018-05-29T03:31:25.542Z,99954.20
2018-05-29T03:33:51.801Z,99955.00
2018-05-29T03:36:18.140Z,99956.66
2018-05-29T03:38:45.209Z,99952.97
2018-05-29T03:41:11.541Z,99949.52
2018-05-29T03:43:37.830Z,99947.73
2018-05-29T03:46:05.632Z,99950.78
2018-05-29T03:48:31.980Z,99946.45
2018-05-29T03:50:58.278Z,99944.70
2018-05-29T03:53:25.375Z,99941.25
2018-05-29T03:55:51.717Z,99950.20
2018-05-29T03:58:18.013Z,99948.45
2018-05-29T04:00:44.296Z,99952.65
2018-05-29T04:03:10.572Z,99939.06
2018-05-29T04:05:36.870Z,99944.87
2018-05-29T04:08:03.184Z,99943.16
2018-05-29T04:10:29.468Z,99944.67
2018-05-29T04:12:55.794Z,99950.02
2018-05-29T04:15:22.079Z,99945.05
2018-05-29T04:17:49.353Z,99939.91
2018-05-29T04:20:16.375Z,99947.85
2018-05-29T04:22:42.648Z,99950.59
2018-05-29T04:25:08.958Z,99948.61
2018-05-29T04:27:35.986Z,99942.78
2018-05-29T04:30:02.306Z,99944.26
2018-05-29T04:32:28.603Z,99944.45
2018-05-29T04:34:54.927Z,99942.30
2018-05-29T04:37:21.207Z,99946.03
2018-05-29T04:39:47.467Z,99947.26
2018-05-29T04:42:14.571Z,99947.64
2018-05-29T04:44:40.872Z,99944.87
2018-05-29T04:47:07.255Z,99946.87
2018-05-29T04:49:33.525Z,99949.92
2018-05-29T04:52:00.547Z,99948.09
2018-05-29T04:54:27.601Z,99943.61
2018-05-29T04:56:54.619Z,99943.88
2018-05-29T04:59:20.918Z,99945.58
2018-05-29T05:01:47.248Z,99945.65
2018-05-29T05:04:13.554Z,99949.13
2018-05-29T05:06:39.842Z,99944.34
2018-05-29T05:09:06.139Z,99945.27
2018-05-29T05:11:32.441Z,99947.63
2018-05-29T05:13:59.479Z,99949.74
2018-05-29T05:16:26.501Z,99938.84
2018-05-29T05:18:52.785Z,99940.12
2018-05-29T05:21:19.084Z,99941.44
2018-05-29T05:23:46.111Z,99943.31
2018-05-29T05:26:13.905Z,99947.42
2018-05-29T05:28:40.915Z,99941.25
2018-05-29T05:31:07.209Z,99938.67
2018-05-29T05:33:33.496Z,99938.38
2018-05-29T05:35:59.805Z,99938.63
2018-05-29T05:38:26.134Z,99937.36
2018-05-29T05:40:52.442Z,99938.66
2018-05-29T05:43:18.695Z,99942.75
2018-05-29T05:45:45.030Z,99933.22
2018-05-29T05:48:11.328Z,99929.81
2018-05-29T05:50:37.621Z,99930.84
2018-05-29T05:53:04.733Z,99928.66
2018-05-29T05:55:30.981Z,99929.00
2018-05-29T05:57:58.133Z,99934.20
2018-05-29T06:00:24.476Z,99935.51
2018-05-29T06:02:50.794Z,99935.25
2018-05-29T06:05:17.946Z,99937.03
2018-05-29T06:07:44.193Z,99932.19
2018-05-29T06:10:11.279Z,99929.28
2018-05-29T06:12:37.567Z,99929.48
2018-05-29T06:15:04.611Z,99926.34
2018-05-29T06:17:30.938Z,99921.43
2018-05-29T06:19:58.206Z,99931.70
2018-05-29T06:22:25.213Z,99919.20
2018-05-29T06:24:52.382Z,99926.47
2018-05-29T06:27:19.024Z,99926.13
2018-05-29T06:29:45.371Z,99924.86
2018-05-29T06:32:12.432Z,99923.53
2018-05-29T06:34:39.465Z,99924.31
2018-05-29T06:37:06.494Z,99922.06
2018-05-29T06:39:32.824Z,99924.59
2018-05-29T06:41:59.158Z,99924.37
2018-05-29T06:44:27.024Z,99915.31
2018-05-29T06:46:53.530Z,99913.33
2018-05-29T06:49:19.817Z,99917.55
2018-05-29T06:51:46.807Z,99912.39
2018-05-29T06:54:13.111Z,99911.22
2018-05-29T06:56:39.408Z,99908.86
2018-05-29T06:59:12.648Z,99915.13
2018-05-29T07:01:38.931Z,99906.80
2018-05-29T07:04:05.209Z,99912.42
2018-05-29T07:06:31.621Z,99899.27
2018-05-29T07:08:58.663Z,99903.81
2018-05-29T07:11:25.746Z,99898.94
2018-05-29T07:13:52.035Z,99900.85
2018-05-29T07:16:19.090Z,99903.02
2018-05-29T07:18:46.154Z,99900.38
2018-05-29T07:21:12.497Z,99898.88
2018-05-29T07:23:38.775Z,99893.30
2018-05-29T07:26:05.807Z,99895.18
2018-05-29T07:28:32.138Z,99895.96
2018-05-29T07:30:58.660Z,99890.58
2018-05-29T07:33:25.030Z,99887.02
2018-05-29T07:35:52.124Z,99883.73
2018-05-29T07:38:18.561Z,99885.69
2018-05-29T07:40:44.888Z,99879.64
2018-05-29T07:43:11.202Z,99876.10
2018-05-29T07:45:37.546Z,99870.13
2018-05-29T07:48:03.782Z,99877.88
2018-05-29T07:50:30.051Z,99872.06
2018-05-29T07:52:56.336Z,99869.51
2018-05-29T07:55:22.593Z,99868.95
2018-05-29T07:57:48.823Z,99875.39
2018-05-29T08:00:16.042Z,99867.69
2018-05-29T08:02:42.334Z,99870.65
2018-05-29T08:05:08.614Z,99859.45
2018-05-29T08:07:34.873Z,99856.69
2018-05-29T08:10:01.141Z,99857.46
2018-05-29T08:12:28.175Z,99854.58
2018-05-29T08:14:54.449Z,99867.91
2018-05-29T08:17:20.719Z,99857.77
2018-05-29T08:19:46.965Z,99852.59
2018-05-29T08:22:13.226Z,99852.83
2018-05-29T08:24:39.563Z,99853.41
2018-05-29T08:27:05.832Z,99858.00
2018-05-29T08:29:32.117Z,99847.33
2018-05-29T08:31:58.404Z,99844.59
2018-05-29T08:34:24.705Z,99852.95
2018-05-29T08:36:51.033Z,99842.69
2018-05-29T08:39:18.297Z,99843.38
2018-05-29T08:41:44.574Z,99843.63
2018-05-29T08:44:11.602Z,99844.45
2018-05-29T08:46:37.882Z,99848.66
2018-05-29T08:49:04.125Z,99840.75
2018-05-29T08:51:30.473Z,99846.70
2018-05-29T08:53:56.803Z,99838.62
2018-05-29T08:56:23.120Z,99835.44
2018-05-29T08:58:49.430Z,99834.66
2018-05-29T09:01:15.818Z,99830.42
2018-05-29T09:03:42.110Z,99832.61
2018-05-29T09:06:08.397Z,99835.61
2018-05-29T09:08:35.586Z,99822.42
2018-05-29T09:11:01.914Z,99817.63
2018-05-29T09:13:28.239Z,99820.51
2018-05-29T09:15:54.536Z,99826.36
2018-05-29T09:18:21.609Z,99822.66
2018-05-29T09:20:47.910Z,99826.78
2018-05-29T09:23:14.186Z,99821.91
2018-05-29T09:25:40.526Z,99820.70
2018-05-29T09:28:06.826Z,99822.48
2018-05-29T09:30:33.888Z,99816.59
2018-05-29T09:33:00.219Z,99819.61
2018-05-29T09:35:26.540Z,99817.10
2018-05-29T09:37:53.542Z,99814.47
2018-05-29T09:40:19.874Z,99813.83
2018-05-29T09:42:46.162Z,99807.30
2018-05-29T09:45:12.494Z,99789.88
2018-05-29T09:47:38.816Z,99805.84
2018-05-29T09:50:05.149Z,99810.83
2018-05-29T09:52:31.509Z,99804.53
2018-05-29T09:54:57.810Z,99801.41
2018-05-29T09:57:24.146Z,99806.25
2018-05-29T09:59:50.454Z,99801.45
2018-05-29T10:02:17.506Z,99791.20
2018-05-29T10:04:43.829Z,99795.72
2018-05-29T10:07:10.945Z,99792.48
2018-05-29T10:09:37.240Z,99804.92
2018-05-29T10:12:03.567Z,99792.58
2018-05-29T10:14:29.850Z,99790.84
2018-05-29T10:16:56.339Z,99773.66
2018-05-29T10:19:22.671Z,99781.43
2018-05-29T10:21:48.998Z,99773.92
2018-05-29T10:24:15.291Z,99777.67
2018-05-29T10:26:42.341Z,99774.44
2018-05-29T10:29:09.367Z,99774.44
2018-05-29T10:31:35.680Z,99768.24
2018-05-29T10:34:01.986Z,99768.23
2018-05-29T10:36:28.389Z,99761.50
2018-05-29T10:38:55.396Z,99764.42
2018-05-29T10:41:21.636Z,99759.98
2018-05-29T10:43:47.936Z,99744.73
2018-05-29T10:46:14.286Z,99746.27
2018-05-29T10:48:40.575Z,99747.81
2018-05-29T10:51:06.838Z,99750.83
2018-05-29T10:53:33.158Z,99745.52
2018-05-29T10:55:59.438Z,99751.97
2018-05-29T10:58:26.497Z,99755.59
2018-05-29T11:00:53.508Z,99746.77
2018-05-29T11:03:19.811Z,99741.75
2018-05-29T11:05:46.114Z,99742.92
2018-05-29T11:08:13.126Z,99740.97
2018-05-29T11:10:39.422Z,99734.91
2018-05-29T11:13:05.778Z,99724.28
2018-05-29T11:15:32.032Z,99733.06
2018-05-29T11:17:58.308Z,99734.72
2018-05-29T11:20:24.633Z,99725.78
2018-05-29T11:22:50.913Z,99728.28
2018-05-29T11:25:17.224Z,99726.63
2018-05-29T11:27:43.558Z,99728.18
2018-05-29T11:30:09.875Z,99728.02
2018-05-29T11:32:36.156Z,99730.49
2018-05-29T11:35:03.187Z,99718.33
2018-05-29T11:37:30.345Z,99721.38
2018-05-29T11:39:56.640Z,99719.75
2018-05-29T11:42:22.984Z,99720.84
2018-05-29T11:44:49.334Z,99705.88
2018-05-29T11:47:15.644Z,99706.61
2018-05-29T11:49:41.927Z,99698.61
2018-05-29T11:52:08.185Z,99726.02
2018-05-29T11:54:34.564Z,99712.00
2018-05-29T11:57:04.882Z,99714.41
2018-05-29T11:59:31.172Z,99713.27
2018-05-29T12:01:57.462Z,99717.05
2018-05-29T12:04:24.546Z,99709.39
2018-05-29T12:06:50.874Z,99714.28
2018-05-29T12:09:17.182Z,99698.52
2018-05-29T12:11:44.194Z,99707.92
2018-05-29T12:14:10.504Z,99718.03
2018-05-29T12:16:36.788Z,99716.48
2018-05-29T12:19:03.794Z,99720.84
2018-05-29T12:21:30.124Z,99725.98
2018-05-29T12:23:56.489Z,99716.47
2018-05-29T12:26:23.492Z,99728.77
2018-05-29T12:28:49.802Z,99721.27
2018-05-29T12:31:16.091Z,99727.70
2018-05-29T12:33:43.126Z,99717.33
2018-05-29T12:36:09.530Z,99711.44
2018-05-29T12:38:35.841Z,99698.52
2018-05-29T12:41:02.170Z,99694.91
2018-05-29T12:43:28.537Z,99692.80
2018-05-29T12:45:55.860Z,99688.87
2018-05-29T12:48:22.198Z,99681.72
2018-05-29T12:50:48.520Z,99684.31
2018-05-29T12:53:14.839Z,99684.73
2018-05-29T12:55:41.174Z,99675.23
2018-05-29T12:58:07.445Z,99674.53
2018-05-29T13:00:40.768Z,99668.64
2018-05-29T13:03:07.083Z,99664.82
2018-05-29T13:05:33.357Z,99668.50
2018-05-29T13:07:59.651Z,99661.02
2018-05-29T13:10:25.919Z,99649.89
2018-05-29T13:12:52.509Z,99649.63
2018-05-29T13:15:18.780Z,99654.38
2018-05-29T13:17:45.086Z,99657.30
2018-05-29T13:20:12.100Z,99656.44
2018-05-29T13:22:38.385Z,99657.74
2018-05-29T13:25:04.749Z,99646.50
2018-05-29T13:27:31.074Z,99649.06
2018-05-29T13:29:58.250Z,99648.35
2018-05-29T13:32:24.568Z,99646.41
2018-05-29T13:34:50.906Z,99647.45
2018-05-29T13:37:17.253Z,99645.75
2018-05-29T13:39:43.546Z,99650.59
2018-05-29T13:42:09.827Z,99642.34
2018-05-29T13:44:37.877Z,99631.36
2018-05-29T13:47:04.995Z,99622.11
2018-05-29T13:49:31.332Z,99629.95
2018-05-29T13:51:57.614Z,99621.05
2018-05-29T13:54:23.906Z,99623.64
2018-05-29T13:56:50.264Z,99626.11
2018-05-29T13:59:16.563Z,99633.48
2018-05-29T14:01:42.855Z,99621.55
2018-05-29T14:04:09.909Z,99617.73
2018-05-29T14:06:36.208Z,99612.23
2018-05-29T14:09:02.584Z,99614.09
2018-05-29T14:11:28.921Z,99610.09
2018-05-29T14:13:55.276Z,99598.22
2018-05-29T14:16:21.659Z,99590.53
2018-05-29T14:18:48.719Z,99577.19
2018-05-29T14:21:15.130Z,99568.92
2018-05-29T14:23:42.263Z,99579.91
2018-05-29T14:26:08.654Z,99575.81
2018-05-29T14:28:34.997Z,99573.69
2018-05-29T14:31:02.339Z,99559.39
2018-05-29T14:33:28.644Z,99560.58
2018-05-29T14:35:55.711Z,99571.88
2018-05-29T14:38:22.070Z,99562.05
2018-05-29T14:40:50.504Z,99565.00
2018-05-29T14:43:17.626Z,99565.43
2018-05-29T14:45:45.484Z,99560.52
2018-05-29T14:48:11.893Z,99561.73
2018-05-29T14:50:38.251Z,99553.88
2018-05-29T14:53:04.681Z,99543.91
2018-05-29T14:55:31.082Z,99547.71
2018-05-29T14:57:57.386Z,99548.05
2018-05-29T15:00:23.782Z,99544.37
2018-05-29T15:02:50.700Z,99535.70
2018-05-29T15:05:17.094Z,99524.34
2018-05-29T15:07:44.122Z,99534.85
2018-05-29T15:10:10.503Z,99532.61
2018-05-29T15:12:36.842Z,99531.31
2018-05-29T15:15:03.220Z,99528.16
2018-05-29T15:17:29.652Z,99518.89
2018-05-29T15:19:56.773Z,99517.36
2018-05-29T15:22:23.088Z,99522.63
2018-05-29T15:24:49.463Z,99514.68
2018-05-29T15:27:15.845Z,99522.82
2018-05-29T15:29:42.202Z,99529.27
2018-05-29T15:32:08.522Z,99529.34
2018-05-29T15:34:35.105Z,99522.88
2018-05-29T15:37:01.528Z,99530.71
2018-05-29T15:39:27.961Z,99525.43
2018-05-29T15:41:54.827Z,99524.23
2018-05-29T15:44:21.905Z,99523.81
2018-05-29T15:46:48.324Z,99522.31
2018-05-29T15:49:14.674Z,99524.78
2018-05-29T15:51:41.016Z,99520.64
2018-05-29T15:54:07.376Z,99516.97
2018-05-29T15:56:33.804Z,99500.40
2018-05-29T15:59:01.364Z,99503.32
2018-05-29T16:01:27.808Z,99499.18
2018-05-29T16:03:54.174Z,99496.88
2018-05-29T16:06:21.317Z,99503.28
2018-05-29T16:08:48.802Z,99504.43
2018-05-29T16:11:15.153Z,99501.61
2018-05-29T16:13:41.470Z,99505.34
2018-05-29T16:16:07.802Z,99512.00
2018-05-29T16:18:34.206Z,99508.49
2018-05-29T16:21:00.530Z,99506.05
2018-05-29T16:23:27.613Z,99499.63
2018-05-29T16:25:53.944Z,99503.26
2018-05-29T16:28:20.309Z,99495.94
2018-05-29T16:30:46.814Z,99497.87
2018-05-29T16:33:13.181Z,99498.08
2018-05-29T16:35:39.657Z,99498.78
2018-05-29T16:38:06.052Z,99489.36
2018-05-29T16:40:32.477Z,99478.65
2018-05-29T16:42:58.910Z,99484.09
2018-05-29T16:45:25.292Z,99476.58
2018-05-29T16:47:51.700Z,99477.92
2018-05-29T16:50:18.974Z,99474.02
2018-05-29T16:52:45.338Z,99481.75
2018-05-29T16:55:11.732Z,99470.81
2018-05-29T16:57:38.089Z,99481.68
2018-05-29T17:00:04.497Z,99490.00
2018-05-29T17:02:30.889Z,99491.02
2018-05-29T17:04:57.306Z,99491.02
2018-05-29T17:07:23.596Z,99481.14
2018-05-29T17:09:50.672Z,99486.02
2018-05-29T17:12:17.056Z,99491.32
2018-05-29T17:14:44.138Z,99492.53
2018-05-29T17:17:10.519Z,99492.37
2018-05-29T17:19:36.951Z,99495.20
2018-05-29T17:22:03.287Z,99488.16
2018-05-29T17:24:29.711Z,99493.80
2018-05-29T17:26:56.027Z,99484.49
2018-05-29T17:29:22.360Z,99488.90
2018-05-29T17:31:48.716Z,99486.78
2018-05-29T17:34:15.122Z,99480.56
2018-05-29T17:36:42.362Z,99486.59
2018-05-29T17:39:08.657Z,99478.48
2018-05-29T17:41:35.773Z,99476.84
2018-05-29T17:44:02.213Z,99485.64
2018-05-29T17:46:28.651Z,99491.64
2018-05-29T17:48:55.085Z,99495.86
2018-05-29T17:51:21.574Z,99501.14
2018-05-29T17:53:47.979Z,99500.08
2018-05-29T17:56:15.273Z,99503.16
2018-05-29T17:58:41.663Z,99499.80
2018-05-29T18:01:08.779Z,99493.33
2018-05-29T18:03:35.247Z,99491.00
2018-05-29T18:06:02.367Z,99491.11
2018-05-29T18:08:28.659Z,99490.00
2018-05-29T18:10:54.990Z,99492.48
2018-05-29T18:13:21.365Z,99486.65
2018-05-29T18:15:47.800Z,99486.92
2018-05-29T18:18:16.173Z,99489.34
2018-05-29T18:20:42.601Z,99483.19
2018-05-29T18:23:08.925Z,99485.02
2018-05-29T18:25:35.468Z,99483.72
2018-05-29T18:28:04.894Z,99490.70
2018-05-29T18:30:32.537Z,99494.94
2018-05-29T18:33:10.990Z,99497.16
2018-05-29T18:35:38.604Z,99495.61
2018-05-29T18:38:06.402Z,99496.95
2018-05-29T18:40:33.683Z,99504.05
2018-05-29T18:43:00.166Z,99505.36
2018-05-29T18:45:26.603Z,99503.08
2018-05-29T18:47:53.145Z,99509.91
2018-05-29T18:50:19.913Z,99509.59
2018-05-29T18:52:47.101Z,99514.50
2018-05-29T18:55:13.508Z,99519.88
2018-05-29T18:57:39.993Z,99522.16
2018-05-29T19:00:06.344Z,99528.80
2018-05-29T19:02:32.814Z,99532.41
2018-05-29T19:04:59.460Z,99529.67
2018-05-29T19:07:25.826Z,99532.73
2018-05-29T19:09:52.181Z,99542.73
2018-05-29T19:12:18.612Z,99541.78
2018-05-29T19:14:46.454Z,99537.16
2018-05-29T19:17:12.873Z,99542.56
2018-05-29T19:19:39.241Z,99537.91
2018-05-29T19:22:05.657Z,99543.45
2018-05-29T19:24:31.969Z,99551.55
2018-05-29T19:26:58.387Z,99557.61
2018-05-29T19:29:24.736Z,99553.20
2018-05-29T19:31:51.019Z,99562.80
2018-05-29T19:34:17.374Z,99571.99
2018-05-29T19:36:43.719Z,99575.84
2018-05-29T19:39:10.051Z,99571.67
2018-05-29T19:41:36.307Z,99564.27
2018-05-29T19:44:02.613Z,99560.00
2018-05-29T19:46:28.958Z,99569.02
2018-05-29T19:48:55.290Z,99568.27
2018-05-29T19:51:21.616Z,99574.68
2018-05-29T19:53:47.956Z,99583.34
2018-05-29T19:56:14.256Z,99575.27
2018-05-29T19:58:40.604Z,99586.64
2018-05-29T20:01:06.975Z,99586.94
2018-05-29T20:03:33.306Z,99591.04
2018-05-29T20:05:59.744Z,99596.81
2018-05-29T20:08:26.131Z,99601.01
2018-05-29T20:10:52.513Z,99604.03
2018-05-29T20:13:18.933Z,99606.83
2018-05-29T20:15:45.232Z,99612.27
2018-05-29T20:18:11.566Z,99609.85
2018-05-29T20:20:37.868Z,99607.55
2018-05-29T20:23:04.952Z,99605.36
2018-05-29T20:25:31.214Z,99610.23
2018-05-29T20:27:57.583Z,99600.55
2018-05-29T20:30:23.906Z,99604.77
2018-05-29T20:32:51.009Z,99605.31
2018-05-29T20:35:17.320Z,99608.65
2018-05-29T20:37:43.644Z,99615.00
2018-05-29T20:40:09.952Z,99623.12
2018-05-29T20:42:37.529Z,99647.47
2018-05-29T20:45:03.825Z,99639.16
2018-05-29T20:47:30.916Z,99646.41
2018-05-29T20:49:57.177Z,99659.10
2018-05-29T20:52:23.479Z,99658.25
2018-05-29T20:54:49.796Z,99654.11
2018-05-29T20:57:16.140Z,99667.16
2018-05-29T20:59:42.454Z,99646.11
2018-05-29T21:02:08.753Z,99646.77
2018-05-29T21:04:34.991Z,99629.22
2018-05-29T21:07:02.082Z,99625.66
2018-05-29T21:09:28.378Z,99622.25
2018-05-29T21:11:55.423Z,99624.82
2018-05-29T21:14:22.512Z,99616.62
2018-05-29T21:16:48.890Z,99620.89
2018-05-29T21:19:15.953Z,99620.48
2018-05-29T21:21:43.023Z,99619.84
2018-05-29T21:24:09.408Z,99620.66
2018-05-29T21:26:36.474Z,99622.94
2018-05-29T21:29:03.648Z,99623.30
2018-05-29T21:31:30.095Z,99625.92
2018-05-29T21:33:56.510Z,99621.77
2018-05-29T21:36:23.567Z,99615.38
2018-05-29T21:38:49.947Z,99606.00
2018-05-29T21:41:16.294Z,99603.69
2018-05-29T21:43:42.623Z,99606.09
2018-05-29T21:46:08.905Z,99592.89
2018-05-29T21:48:35.196Z,99588.07
2018-05-29T21:51:01.517Z,99585.20
2018-05-29T21:53:27.853Z,99578.64
2018-05-29T21:55:54.861Z,99580.98
2018-05-29T21:58:21.123Z,99575.95
2018-05-29T22:00:48.173Z,99571.42
2018-05-29T22:03:14.435Z,99570.52
2018-05-29T22:05:41.464Z,99565.07
2018-05-29T22:08:08.540Z,99566.43
2018-05-29T22:10:34.834Z,99567.81
2018-05-29T22:13:01.226Z,99568.33
2018-05-29T22:15:27.562Z,99578.14
2018-05-29T22:17:53.835Z,99576.48
2018-05-29T22:20:20.876Z,99577.55
2018-05-29T22:22:47.236Z,99576.10
2018-05-29T22:25:13.697Z,99577.22
2018-05-29T22:27:40.006Z,99576.52
2018-05-29T22:30:06.327Z,99587.54
2018-05-29T22:32:33.914Z,99593.49
2018-05-29T22:35:00.217Z,99597.31
2018-05-29T22:37:26.490Z,99601.20
2018-05-29T22:39:52.762Z,99604.41
2018-05-29T22:42:19.074Z,99607.38
2018-05-29T22:44:45.367Z,99609.84
2018-05-29T22:47:11.654Z,99606.14
2018-05-29T22:49:37.946Z,99611.59
2018-05-29T22:52:04.227Z,99617.02
2018-05-29T22:54:31.261Z,99623.45
2018-05-29T22:56:58.324Z,99632.41
2018-05-29T22:59:25.410Z,99633.88
2018-05-29T23:01:51.694Z,99628.73
2018-05-29T23:04:18.777Z,99626.06
2018-05-29T23:06:45.050Z,99636.34
2018-05-29T23:09:11.380Z,99634.72
2018-05-29T23:11:37.649Z,99638.41
2018-05-29T23:14:04.690Z,99636.34
2018-05-29T23:16:31.706Z,99636.12
2018-05-29T23:18:58.034Z,99625.66
2018-05-29T23:21:24.328Z,99635.83
2018-05-29T23:23:50.621Z,99637.41
2018-05-29T23:26:17.665Z,99635.79
2018-05-29T23:28:44.760Z,99633.03
2018-05-29T23:31:11.091Z,99628.70
2018-05-29T23:33:37.351Z,99631.98
2018-05-29T23:36:03.634Z,99631.96
2018-05-29T23:38:29.915Z,99626.42
2018-05-29T23:40:56.246Z,99625.91
2018-05-29T23:43:23.274Z,99622.73
2018-05-29T23:45:49.555Z,99619.65
2018-05-29T23:48:16.582Z,99621.62
2018-05-29T23:50:42.906Z,99628.78
2018-05-29T23:53:09.217Z,99625.09
2018-05-29T23:55:35.510Z,99625.91
2018-05-29T23:58:01.799Z,99622.73
